Time;durP1;ratioP1;P1;durP2;ratioP2;P2;SDS_P1;SDS_P2;PMS_P1;PMS_P2;Temp;Humidity;BMP_temperature;BMP_pressure;BME280_temperature;BME280_humidity;BME280_pressure;Samples;Min_cycle;Max_cycle;Signal;HPM_P1;HPM_P2
2022/06/01 00:00:55;;;;;;;47.63;21.70;;;;;;;30.28;73.58;100678.00;5059393;28;70998;-35
2022/06/01 00:03:31;;;;;;;40.35;19.10;;;;;;;29.93;75.10;100614.59;5067407;28;66586;-35
2022/06/01 00:06:03;;;;;;;49.75;16.35;;;;;;;30.37;76.60;100675.00;5062315;28;70102;-35
2022/06/01 00:08:51;;;;;;;31.83;14.25;;;;;;;30.36;77.99;100667.94;5056639;28;65008;-36
2022/06/01 00:11:25;;;;;;;37.17;15.50;;;;;;;30.39;78.72;100667.50;5071521;28;70072;-34
2022/06/01 00:14:03;;;;;;;52.83;14.38;;;;;;;30.42;77.91;100672.47;5056534;28;67468;-37
2022/06/01 00:16:35;;;;;;;22.42;13.13;;;;;;;30.38;78.90;100660.44;5063864;27;71120;-38
2022/06/01 00:19:07;;;;;;;27.27;13.97;;;;;;;30.42;79.42;100657.09;5071690;27;66302;-38
2022/06/01 00:22:11;;;;;;;28.58;12.15;;;;;;;30.50;76.01;100659.47;5069595;28;70382;-38
2022/06/01 00:24:29;;;;;;;26.38;12.52;;;;;;;30.41;79.93;100660.00;5064167;28;65855;-37
2022/06/01 00:27:00;;;;;;;29.77;12.32;;;;;;;30.53;78.95;100669.03;5070284;28;70663;-37
2022/06/01 00:29:31;;;;;;;21.52;12.73;;;;;;;30.56;78.31;100667.75;5056017;28;64956;-37
2022/06/01 00:32:03;;;;;;;22.08;11.73;;;;;;;30.60;78.02;100677.91;5064965;28;70415;-38
2022/06/01 00:34:34;;;;;;;22.38;13.18;;;;;;;30.57;78.62;100681.09;5071599;28;65997;-36
2022/06/01 00:37:05;;;;;;;21.17;12.67;;;;;;;30.63;78.15;100685.59;5062021;28;68849;-37
2022/06/01 00:39:37;;;;;;;29.03;12.67;;;;;;;30.67;78.64;100686.81;5065902;28;66084;-36
2022/06/01 00:42:14;;;;;;;29.42;13.82;;;;;;;30.72;78.55;100695.06;5075476;28;69503;-38
2022/06/01 00:44:47;;;;;;;28.33;12.93;;;;;;;30.36;78.10;100649.00;5071112;28;66636;-36
2022/06/01 00:47:19;;;;;;;38.92;13.40;;;;;;;30.72;78.94;100711.31;5076793;27;70444;-36
2022/06/01 00:49:58;;;;;;;31.25;13.68;;;;;;;30.77;78.15;100718.78;5069293;28;65705;-36
2022/06/01 00:52:40;;;;;;;27.98;13.55;;;;;;;30.70;78.69;100708.03;5074132;28;69934;-37
2022/06/01 00:55:19;;;;;;;25.20;13.80;;;;;;;30.80;79.04;100733.78;5074013;28;66582;-36
2022/06/01 00:57:54;;;;;;;18.85;12.95;;;;;;;30.98;74.93;100735.69;5053838;28;69132;-35
2022/06/01 01:00:28;;;;;;;352.92;317.95;;;;;;;30.71;74.02;100665.53;5068517;28;66653;-37
2022/06/01 01:03:03;;;;;;;103.63;83.38;;;;;;;31.16;73.83;100733.81;5062672;28;71424;-38
2022/06/01 01:05:37;;;;;;;264.38;239.77;;;;;;;31.22;73.07;100725.84;5056207;28;68299;-36
2022/06/01 01:08:09;;;;;;;355.30;322.40;;;;;;;31.29;72.96;100727.44;5073686;28;69427;-36
2022/06/01 01:10:40;;;;;;;186.10;166.73;;;;;;;31.35;73.20;100728.41;5042877;28;67234;-36
2022/06/01 01:13:14;;;;;;;170.02;153.15;;;;;;;31.40;72.72;100728.59;5062792;28;70821;-36
2022/06/01 01:15:58;;;;;;;384.88;344.35;;;;;;;31.08;72.81;100665.56;5069181;28;66176;-36
2022/06/01 01:18:33;;;;;;;456.63;408.10;;;;;;;31.51;72.49;100726.97;5076160;28;70004;-36
2022/06/01 01:21:22;;;;;;;431.13;385.63;;;;;;;31.26;72.74;100692.66;5076514;28;65549;-36
2022/06/01 01:24:13;;;;;;;439.50;393.02;;;;;;;31.22;72.84;100682.47;5064777;28;69994;-37
2022/06/01 01:26:48;;;;;;;360.00;320.75;;;;;;;31.42;72.49;100710.19;5074683;28;66255;-37
2022/06/01 01:29:43;;;;;;;408.13;365.10;;;;;;;31.24;73.26;100685.81;5068869;28;71265;-37
2022/06/01 01:32:14;;;;;;;532.08;480.05;;;;;;;31.66;72.08;100742.84;5052665;28;65791;-37
2022/06/01 01:34:45;;;;;;;507.30;457.27;;;;;;;31.72;72.20;100747.34;5076117;28;70189;-36
2022/06/01 01:37:21;;;;;;;506.67;455.77;;;;;;;31.75;71.70;100741.47;5061083;28;68010;-37
2022/06/01 01:39:53;;;;;;;430.20;384.85;;;;;;;31.77;72.00;100739.34;5071682;28;70195;-37
2022/06/01 01:42:24;;;;;;;;;;;;;;;31.47;73.88;100744.75;5078881;28;66857;-38
2022/06/01 01:45:04;;;;;;;273.98;244.63;;;;;;;31.81;72.02;100745.97;5075748;28;69639;-42
2022/06/01 01:47:39;;;;;;;232.10;207.48;;;;;;;31.59;72.02;100691.41;5064125;28;66136;-38
2022/06/01 01:50:12;;;;;;;187.10;166.50;;;;;;;31.55;71.75;100682.91;5049763;28;69852;-36
2022/06/01 01:52:44;;;;;;;164.43;145.77;;;;;;;31.89;71.17;100740.22;5074839;28;65712;-37
2022/06/01 01:55:35;;;;;;;148.00;130.85;;;;;;;31.93;71.78;100727.88;5043424;28;69555;-37
2022/06/01 01:58:27;;;;;;;126.43;110.38;;;;;;;31.90;72.35;100728.31;5076595;28;65591;-36
2022/06/01 02:01:07;;;;;;;110.82;95.43;;;;;;;31.96;71.75;100732.03;5075383;28;69836;-37
2022/06/01 02:03:46;;;;;;;105.13;86.25;;;;;;;31.71;71.64;100680.63;5077247;28;66118;-37
2022/06/01 02:06:43;;;;;;;95.80;78.47;;;;;;;31.84;72.38;100712.94;5028332;28;69319;-36
2022/06/01 02:09:15;;;;;;;92.72;74.72;;;;;;;32.02;71.53;100721.06;5036976;28;66268;-36
2022/06/01 02:15:11;;;;;;;80.13;63.67;;;;;;;31.40;71.72;100620.16;5077504;28;66418;-37
2022/06/01 02:17:54;;;;;;;77.38;58.00;;;;;;;32.04;72.21;100729.00;5076669;28;70088;-36
2022/06/01 02:20:45;;;;;;;64.85;52.50;;;;;;;31.99;72.71;100726.13;5060723;28;66294;-37
2022/06/01 02:23:17;;;;;;;61.75;49.75;;;;;;;32.06;71.52;100721.41;5064815;28;69921;-37
2022/06/01 02:25:53;;;;;;;60.42;46.55;;;;;;;32.12;71.50;100725.09;5054481;28;66852;-37
2022/06/01 02:28:24;;;;;;;55.30;43.42;;;;;;;32.07;71.18;100719.53;5048923;28;70517;-37
2022/06/01 02:30:57;;;;;;;56.33;41.85;;;;;;;32.16;71.38;100729.00;5060109;28;66449;-37
2022/06/01 02:33:33;;;;;;;49.53;39.97;;;;;;;31.90;71.38;100684.91;5067729;28;69479;-37
2022/06/01 02:36:06;;;;;;;45.33;36.17;;;;;;;31.85;71.50;100663.09;5065124;28;65508;-37
2022/06/01 02:38:43;;;;;;;43.10;34.15;;;;;;;31.85;71.74;100665.81;5071476;28;69984;-36
2022/06/01 02:44:04;;;;;;;36.05;29.65;;;;;;;32.24;71.32;100715.09;5067403;28;69572;-37
2022/06/01 02:46:36;;;;;;;37.90;28.88;;;;;;;32.25;71.40;100703.19;5078291;28;66226;-37
2022/06/01 02:49:23;;;;;;;34.35;27.88;;;;;;;32.23;71.50;100710.72;5075816;28;70059;-37
2022/06/01 02:52:02;;;;;;;36.88;28.63;;;;;;;32.28;71.25;100708.94;5061379;28;66181;-37
2022/06/01 02:54:33;;;;;;;37.75;25.88;;;;;;;32.30;70.76;100711.44;5046712;28;70109;-36
2022/06/01 02:57:04;;;;;;;34.53;26.02;;;;;;;32.32;70.62;100706.63;5065577;28;66894;-37
2022/06/01 02:59:36;;;;;;;35.20;24.70;;;;;;;32.33;70.80;100721.84;5039284;28;70077;-36
2022/06/01 03:02:09;;;;;;;42.53;26.60;;;;;;;32.30;71.00;100711.44;5055334;28;66685;-37
2022/06/01 03:04:42;;;;;;;40.20;29.20;;;;;;;32.35;70.67;100714.28;5046024;28;69577;-36
2022/06/01 03:07:14;;;;;;;55.30;30.80;;;;;;;32.33;70.51;100710.16;5054480;28;65720;-36
2022/06/01 03:09:45;;;;;;;63.97;35.57;;;;;;;32.33;70.90;100705.53;5053233;28;69450;-37
2022/06/01 03:12:16;;;;;;;84.63;50.30;;;;;;;32.36;70.55;100698.81;5059568;28;65803;-37
2022/06/01 03:14:47;;;;;;;97.63;55.30;;;;;;;32.36;70.55;100688.78;5058986;28;70553;-37
2022/06/01 03:17:34;;;;;;;93.75;55.15;;;;;;;32.31;70.99;100675.09;5044838;28;66279;-37
2022/06/01 03:20:14;;;;;;;98.80;61.00;;;;;;;32.40;70.44;100673.69;5055115;28;71641;-36
2022/06/01 03:22:46;;;;;;;118.50;70.20;;;;;;;32.39;70.41;100672.03;5043108;28;66273;-36
2022/06/01 03:25:31;;;;;;;124.00;75.97;;;;;;;32.38;70.63;100675.81;5060567;28;69132;-36
2022/06/01 03:28:02;;;;;;;119.05;74.18;;;;;;;32.43;70.78;100673.22;5060494;28;66425;-37
2022/06/01 03:30:33;;;;;;;120.30;71.22;;;;;;;32.39;70.82;100660.34;5031738;28;70315;-37
2022/06/01 03:33:05;;;;;;;121.35;71.75;;;;;;;32.43;70.47;100662.38;5043033;28;65894;-37
2022/06/01 03:35:40;;;;;;;108.47;67.30;;;;;;;32.48;70.75;100659.81;5050131;28;71236;-38
2022/06/01 03:38:12;;;;;;;108.05;65.45;;;;;;;32.44;70.53;100661.28;5048298;28;66049;-36
2022/06/01 03:40:43;;;;;;;105.05;63.13;;;;;;;32.53;70.40;100660.97;5057874;28;69515;-37
2022/06/01 03:43:14;;;;;;;101.10;57.63;;;;;;;32.48;70.61;100653.53;5059344;28;66216;-37
2022/06/01 03:45:56;;;;;;;88.00;55.10;;;;;;;32.54;70.31;100662.59;5023955;28;69829;-37
2022/06/01 03:48:30;;;;;;;89.72;52.65;;;;;;;32.21;70.47;100610.56;5061066;28;65447;-36
2022/06/01 03:51:01;;;;;;;88.25;50.90;;;;;;;32.58;70.29;100664.63;5059558;28;70098;-36
2022/06/01 03:53:31;;;;;;;82.38;49.83;;;;;;;32.59;70.41;100660.84;5062289;28;65373;-37
2022/06/01 03:56:02;;;;;;;83.20;47.92;;;;;;;32.61;70.05;100655.19;5046906;28;69466;-37
2022/06/01 03:58:33;;;;;;;77.53;46.70;;;;;;;32.62;70.02;100662.25;5080776;28;65029;-39
2022/06/01 04:01:07;;;;;;;69.45;39.40;;;;;;;32.66;70.35;100666.97;5081378;28;70233;-37
2022/06/01 04:03:39;;;;;;;62.38;36.78;;;;;;;32.67;70.41;100665.09;5069963;28;65398;-35
2022/06/01 04:06:09;;;;;;;60.88;35.67;;;;;;;32.69;70.17;100671.13;5045968;28;68847;-37
2022/06/01 04:08:40;;;;;;;56.40;34.00;;;;;;;32.69;70.07;100665.69;5070959;28;65442;-37
2022/06/01 04:11:11;;;;;;;62.08;34.67;;;;;;;32.72;70.04;100654.34;5078608;28;70393;-37
2022/06/01 04:13:42;;;;;;;50.17;29.80;;;;;;;32.74;69.97;100663.09;5070544;28;66390;-37
2022/06/01 04:16:13;;;;;;;50.28;28.75;;;;;;;32.76;70.16;100660.94;5078102;28;70390;-37
2022/06/01 04:18:48;;;;;;;46.45;28.48;;;;;;;32.79;70.05;100656.91;5062949;28;65393;-37
2022/06/01 04:21:23;;;;;;;56.05;27.00;;;;;;;32.41;69.91;100593.91;5081327;27;69961;-37
2022/06/01 04:23:59;;;;;;;52.55;27.10;;;;;;;32.83;69.81;100660.81;5081254;28;66403;-37
2022/06/01 04:26:29;;;;;;;45.85;25.55;;;;;;;32.84;69.96;100652.41;5076868;28;70102;-37
2022/06/01 04:29:01;;;;;;;38.72;24.85;;;;;;;32.83;69.79;100656.22;5071456;28;66071;-36
2022/06/01 04:31:32;;;;;;;40.40;23.40;;;;;;;32.90;69.74;100662.34;5080870;28;69611;-37
2022/06/01 04:34:04;;;;;;;34.10;22.85;;;;;;;32.91;69.54;100664.00;5062739;28;65836;-37
2022/06/01 04:36:35;;;;;;;35.88;23.23;;;;;;;32.90;69.53;100661.50;5063093;28;70093;-37
2022/06/01 04:39:09;;;;;;;30.83;21.33;;;;;;;32.94;69.28;100662.69;5062242;28;65245;-35
2022/06/01 04:41:40;;;;;;;39.22;22.50;;;;;;;32.96;69.39;100670.59;5064167;28;70251;-36
2022/06/01 04:44:10;;;;;;;30.40;21.77;;;;;;;32.96;69.22;100657.00;5081517;28;66363;-36
2022/06/01 04:46:42;;;;;;;34.47;22.88;;;;;;;32.99;69.15;100649.22;5056218;28;71221;-37
2022/06/01 04:49:12;;;;;;;33.35;20.73;;;;;;;33.03;68.94;100652.31;5070122;28;66417;-36
2022/06/01 04:51:43;;;;;;;34.67;23.52;;;;;;;33.04;68.81;100659.38;5067589;28;71564;-37
2022/06/01 04:54:14;;;;;;;34.13;24.05;;;;;;;33.06;68.82;100655.34;5070549;28;66752;-37
2022/06/01 04:56:45;;;;;;;41.45;24.20;;;;;;;33.10;68.98;100644.84;5078554;28;70076;-37
2022/06/01 04:59:17;;;;;;;34.70;22.13;;;;;;;33.09;68.48;100645.91;5060238;28;66155;-38
2022/06/01 05:01:48;;;;;;;42.00;25.17;;;;;;;33.14;68.53;100646.00;5059575;28;69998;-38
2022/06/01 05:04:19;;;;;;;44.50;27.13;;;;;;;33.13;68.59;100655.22;5074749;28;65835;-37
2022/06/01 05:06:49;;;;;;;40.38;27.25;;;;;;;33.07;68.79;100645.31;5051559;28;69539;-37
2022/06/01 05:09:20;;;;;;;44.67;25.20;;;;;;;33.15;68.32;100647.63;5059868;28;66514;-37
2022/06/01 05:11:51;;;;;;;33.28;22.70;;;;;;;33.16;68.37;100643.88;5065340;28;69584;-37
2022/06/01 05:14:23;;;;;;;38.70;24.08;;;;;;;33.15;68.34;100636.78;5064445;28;68261;-38
2022/06/01 05:17:01;;;;;;;38.30;22.48;;;;;;;32.84;68.01;100603.50;5049363;28;69163;-37
2022/06/01 05:19:33;;;;;;;27.48;20.85;;;;;;;32.78;68.23;100576.50;5077231;28;66431;-37
2022/06/01 05:22:04;;;;;;;30.80;20.98;;;;;;;33.13;68.19;100633.50;5061164;28;70223;-37
2022/06/01 05:24:35;;;;;;;29.65;20.30;;;;;;;33.06;68.29;100619.19;5073506;28;66288;-37
2022/06/01 05:27:07;;;;;;;36.70;20.90;;;;;;;33.12;67.95;100631.81;5078218;28;70570;-37
2022/06/01 05:29:37;;;;;;;36.17;21.75;;;;;;;33.12;68.33;100620.94;5078111;28;66046;-37
2022/06/01 05:32:10;;;;;;;29.75;20.65;;;;;;;33.15;67.93;100615.03;5076012;28;69400;-37
2022/06/01 05:34:41;;;;;;;33.80;20.45;;;;;;;33.13;67.99;100612.56;5076744;27;65907;-37
2022/06/01 05:37:12;;;;;;;30.63;20.02;;;;;;;33.17;67.83;100602.03;5076040;28;69988;-37
2022/06/01 05:39:43;;;;;;;30.83;19.40;;;;;;;33.18;67.94;100597.41;5068742;28;67419;-37
2022/06/01 05:42:13;;;;;;;24.23;19.25;;;;;;;33.11;67.93;100573.09;5076893;28;70410;-37
2022/06/01 05:44:45;;;;;;;27.90;19.23;;;;;;;33.21;67.91;100586.91;5059745;28;65762;-38
2022/06/01 05:47:16;;;;;;;23.67;18.23;;;;;;;33.21;67.90;100580.63;5056579;28;69239;-37
2022/06/01 05:49:49;;;;;;;31.63;18.77;;;;;;;33.25;67.83;100571.75;5078318;28;66014;-38
2022/06/01 05:52:19;;;;;;;27.30;19.10;;;;;;;33.25;67.80;100574.47;5078162;28;69310;-38
2022/06/01 05:54:50;;;;;;;22.02;17.25;;;;;;;33.22;67.76;100558.63;5050183;28;65733;-37
2022/06/01 05:57:21;;;;;;;23.40;17.65;;;;;;;33.27;67.73;100553.31;5052527;28;69704;-38
2022/06/01 05:59:52;;;;;;;29.00;17.75;;;;;;;33.28;67.88;100545.97;5055811;28;66258;-37
2022/06/01 06:02:23;;;;;;;26.42;18.05;;;;;;;33.30;67.84;100536.50;5052480;28;69610;-37
2022/06/01 06:04:54;;;;;;;26.33;17.65;;;;;;;33.28;67.78;100522.31;5055495;28;66142;-37
2022/06/01 06:07:25;;;;;;;21.65;16.70;;;;;;;33.20;68.04;100502.88;5079663;28;69887;-37
2022/06/01 06:09:55;;;;;;;19.65;16.02;;;;;;;33.35;67.80;100528.44;5079128;28;65492;-37
2022/06/01 06:12:26;;;;;;;26.23;16.13;;;;;;;33.36;67.50;100527.34;5077209;28;70512;-37
2022/06/01 06:14:57;;;;;;;24.42;16.20;;;;;;;33.40;67.65;100540.44;5078832;28;65573;-40
2022/06/01 06:17:27;;;;;;;23.38;15.27;;;;;;;33.40;67.27;100543.16;5066875;28;70347;-37
2022/06/01 06:19:58;;;;;;;19.67;15.05;;;;;;;33.46;67.40;100555.78;5045717;28;66652;-38
2022/06/01 06:22:29;;;;;;;20.17;15.10;;;;;;;33.42;67.51;100538.31;5067606;28;70830;-37
2022/06/01 06:25:00;;;;;;;27.83;15.03;;;;;;;33.43;67.37;100524.47;5063777;28;66454;-35
2022/06/01 06:27:31;;;;;;;19.05;13.82;;;;;;;33.53;67.29;100529.28;5044396;28;70590;-38
2022/06/01 06:30:03;;;;;;;19.10;13.23;;;;;;;33.52;67.18;100505.88;5047868;28;65129;-38
2022/06/01 06:32:34;;;;;;;19.67;13.13;;;;;;;33.53;67.29;100491.22;5066228;28;69916;-36
2022/06/01 06:35:05;;;;;;;17.67;13.23;;;;;;;33.46;67.27;100475.06;5077387;28;67978;-37
2022/06/01 06:37:36;;;;;;;20.97;13.77;;;;;;;33.47;67.02;100459.56;5061765;28;69868;-37
2022/06/01 06:40:08;;;;;;;19.83;13.02;;;;;;;33.56;67.32;100468.97;5076550;28;66456;-36
2022/06/01 06:42:39;;;;;;;16.75;13.20;;;;;;;33.59;67.20;100473.91;5079278;28;70238;-37
2022/06/01 06:45:10;;;;;;;18.45;13.80;;;;;;;33.59;66.97;100482.06;5074727;28;65831;-37
2022/06/01 06:47:42;;;;;;;15.50;11.87;;;;;;;33.58;67.19;100477.72;5074792;28;71233;-36
2022/06/01 06:50:18;;;;;;;15.07;12.50;;;;;;;33.27;67.14;100420.09;5073913;28;65180;-36
2022/06/01 06:53:09;;;;;;;14.20;12.25;;;;;;;33.65;66.83;100472.91;5082578;28;70554;-38
2022/06/01 06:55:40;;;;;;;14.65;11.60;;;;;;;33.68;66.82;100466.97;5064317;28;66561;-37
2022/06/01 06:58:11;;;;;;;13.27;11.85;;;;;;;33.67;66.88;100454.44;5072583;28;70092;-37
2022/06/01 07:00:42;;;;;;;13.20;10.90;;;;;;;33.72;66.71;100457.25;5078118;28;66964;-37
2022/06/01 07:03:13;;;;;;;13.10;11.00;;;;;;;33.74;66.45;100454.25;5082269;28;69389;-36
2022/06/01 07:08:34;;;;;;;16.63;11.75;;;;;;;33.71;66.99;100452.88;5061791;28;69752;-37
2022/06/01 07:11:06;;;;;;;15.60;11.32;;;;;;;33.73;66.66;100448.00;5059113;28;66319;-37
2022/06/01 07:13:37;;;;;;;15.27;10.65;;;;;;;33.76;66.75;100447.50;5072990;28;69211;-38
2022/06/01 07:16:07;;;;;;;16.48;10.00;;;;;;;33.76;66.46;100452.94;5061988;28;66267;-37
2022/06/01 07:18:41;;;;;;;13.88;10.73;;;;;;;33.35;66.53;100381.63;5060822;28;69533;-37
2022/06/01 07:21:14;;;;;;;12.80;9.95;;;;;;;33.82;66.37;100440.22;5060913;28;66262;-37
2022/06/01 07:23:47;;;;;;;11.50;9.98;;;;;;;33.77;66.28;100427.41;5062579;28;70012;-37
2022/06/01 07:26:41;;;;;;;12.80;10.07;;;;;;;33.74;66.09;100419.75;5044152;28;65346;-38
2022/06/01 07:29:14;;;;;;;13.15;10.32;;;;;;;33.87;66.11;100418.53;5068611;28;70043;-36
2022/06/01 07:31:46;;;;;;;13.13;10.15;;;;;;;33.88;66.07;100401.16;5046328;28;65483;-35
2022/06/01 07:34:18;;;;;;;13.38;8.98;;;;;;;33.86;65.87;100397.03;5064572;28;69882;-37
2022/06/01 07:36:49;;;;;;;15.68;9.43;;;;;;;33.91;66.13;100405.28;5061506;28;66009;-37
2022/06/01 07:44:58;;;;;;;12.68;9.27;;;;;;;33.95;65.73;100387.34;5066874;28;70220;-36
2022/06/01 07:47:29;;;;;;;18.63;9.13;;;;;;;33.99;65.66;100383.03;5044478;28;65995;-38
2022/06/01 07:50:20;;;;;;;10.95;8.40;;;;;;;34.00;65.50;100387.41;5082209;28;70048;-36
2022/06/01 07:53:11;;;;;;;10.73;8.60;;;;;;;34.01;65.69;100387.16;5071790;28;65200;-38
2022/06/01 07:55:42;;;;;;;15.83;8.77;;;;;;;34.02;65.68;100390.72;5060617;28;70202;-36
2022/06/01 07:58:13;;;;;;;10.70;7.95;;;;;;;34.01;65.37;100378.16;5067445;28;64824;-37
2022/06/01 08:00:44;;;;;;;10.70;8.23;;;;;;;34.01;65.31;100375.44;5066079;28;69178;-37
2022/06/01 08:03:17;;;;;;;8.27;7.38;;;;;;;34.06;65.31;100364.66;5081831;28;65728;-38
2022/06/01 08:05:48;;;;;;;12.52;8.13;;;;;;;34.06;65.60;100361.94;5079920;28;70058;-36
2022/06/01 08:08:19;;;;;;;10.10;7.97;;;;;;;34.02;64.83;100341.75;5081581;28;66287;-37
2022/06/01 08:10:50;;;;;;;11.63;7.82;;;;;;;34.10;65.10;100349.47;5081760;28;70023;-37
2022/06/01 08:13:20;;;;;;;13.13;7.88;;;;;;;34.10;64.80;100349.47;5068132;28;66424;-37
2022/06/01 08:15:54;;;;;;;10.75;7.13;;;;;;;34.04;65.22;100336.84;5067814;28;69141;-37
2022/06/01 08:18:25;;;;;;;8.50;7.50;;;;;;;34.14;64.73;100347.88;5065657;28;65348;-37
2022/06/01 08:20:56;;;;;;;12.85;7.50;;;;;;;34.08;64.89;100346.19;5063723;28;69851;-37
2022/06/01 08:23:30;;;;;;;12.63;7.85;;;;;;;34.11;64.87;100345.66;5050627;28;66125;-36
2022/06/01 08:26:01;;;;;;;10.57;7.55;;;;;;;34.13;65.03;100338.09;5061467;28;70530;-36
2022/06/01 08:28:31;;;;;;;7.55;6.85;;;;;;;34.16;64.66;100347.63;5067368;28;65676;-36
2022/06/01 08:31:02;;;;;;;9.55;7.60;;;;;;;34.17;64.58;100338.38;5081171;28;69213;-37
2022/06/01 08:33:35;;;;;;;11.18;7.00;;;;;;;34.17;64.54;100333.75;5079562;28;66526;-36
2022/06/01 08:36:05;;;;;;;9.75;6.75;;;;;;;34.19;64.82;100347.94;5066072;28;70407;-36
2022/06/01 08:38:37;;;;;;;7.72;6.97;;;;;;;34.16;64.37;100336.75;5062311;28;66192;-36
2022/06/01 08:41:10;;;;;;;10.02;6.68;;;;;;;34.19;64.51;100337.06;5054022;28;70470;-36
2022/06/01 08:43:59;;;;;;;10.20;6.82;;;;;;;34.09;64.45;100336.94;5058357;28;65324;-37
2022/06/01 08:46:34;;;;;;;9.93;6.75;;;;;;;34.20;64.32;100337.88;5074930;28;69409;-36
2022/06/01 08:49:12;;;;;;;9.15;6.13;;;;;;;34.21;64.38;100340.34;5062376;28;65229;-36
2022/06/01 08:51:43;;;;;;;10.85;6.82;;;;;;;34.20;64.50;100327.78;5071115;28;70058;-36
2022/06/01 08:54:13;;;;;;;7.78;6.43;;;;;;;34.23;64.46;100326.47;5080396;28;66814;-36
2022/06/01 08:56:47;;;;;;;23.20;6.55;;;;;;;34.23;64.60;100316.41;5062032;28;69837;-36
2022/06/01 08:59:40;;;;;;;13.10;6.68;;;;;;;34.24;64.20;100303.59;5065394;28;65322;-37
2022/06/01 09:02:20;;;;;;;11.55;6.22;;;;;;;34.19;64.15;100304.38;5080143;28;70118;-36
2022/06/01 09:05:03;;;;;;;7.32;6.55;;;;;;;33.94;64.33;100263.28;5062636;28;65103;-36
2022/06/01 09:07:41;;;;;;;8.82;5.75;;;;;;;33.95;64.07;100264.91;5079274;28;70623;-36
2022/06/01 09:10:20;;;;;;;8.23;6.22;;;;;;;33.94;64.07;100264.09;5071863;28;66247;-36
2022/06/01 09:13:08;;;;;;;7.37;6.47;;;;;;;33.91;64.25;100252.91;5060322;28;70379;-37
2022/06/01 09:15:54;;;;;;;7.43;5.75;;;;;;;33.84;63.83;100241.38;5073075;28;65615;-37
2022/06/01 09:18:40;;;;;;;10.45;6.00;;;;;;;34.25;64.07;100292.47;5078638;28;70600;-36
2022/06/01 09:24:16;;;;;;;11.85;6.15;;;;;;;34.26;64.24;100299.53;5073072;28;69401;-36
2022/06/01 09:27:01;;;;;;;6.47;5.90;;;;;;;33.94;64.38;100255.13;5068219;28;65404;-37
2022/06/01 09:29:36;;;;;;;8.30;5.97;;;;;;;34.29;64.26;100300.13;5080743;28;69739;-36
2022/06/01 09:32:23;;;;;;;12.68;6.15;;;;;;;34.05;64.02;100265.06;5081228;28;66144;-36
2022/06/01 09:35:00;;;;;;;9.88;5.60;;;;;;;34.29;64.10;100308.28;5079449;28;70376;-37
2022/06/01 09:37:50;;;;;;;10.18;7.03;;;;;;;34.16;64.24;100304.09;5079882;28;66381;-36
2022/06/01 09:40:28;;;;;;;12.70;6.10;;;;;;;34.26;63.78;100313.16;5058937;28;69957;-36
2022/06/01 09:43:00;;;;;;;8.10;6.43;;;;;;;34.17;63.93;100289.38;5069717;28;65924;-37
2022/06/01 09:45:53;;;;;;;6.22;5.63;;;;;;;34.16;64.05;100326.69;5078802;28;69500;-36
2022/06/01 09:48:39;;;;;;;12.65;6.55;;;;;;;34.23;63.84;100340.91;5076683;28;66938;-36
2022/06/01 09:51:39;;;;;;;7.68;6.63;;;;;;;34.10;63.96;100344.03;5060727;28;69099;-37
2022/06/01 09:54:39;;;;;;;12.75;6.55;;;;;;;34.14;64.33;100347.88;5074531;28;66264;-36
2022/06/01 09:57:19;;;;;;;10.73;7.15;;;;;;;34.26;64.09;100348.53;5074462;28;69682;-38
2022/06/01 10:08:31;;;;;;;7.53;6.28;;;;;;;34.25;64.63;100371.41;5072000;28;69614;-37
2022/06/01 10:11:21;;;;;;;9.13;6.47;;;;;;;34.21;64.33;100356.69;5069396;28;66850;-36
2022/06/01 10:14:01;;;;;;;15.75;6.10;;;;;;;34.27;64.22;100382.06;5078039;28;69796;-37
2022/06/01 10:16:46;;;;;;;9.63;6.13;;;;;;;33.90;64.52;100332.88;5064944;28;66626;-37
2022/06/01 10:19:27;;;;;;;8.73;6.35;;;;;;;34.01;63.97;100353.69;5072561;28;69937;-36
2022/06/01 10:22:19;;;;;;;7.80;5.82;;;;;;;34.20;64.29;100414.09;5055940;28;66146;-36
2022/06/01 10:24:58;;;;;;;8.77;5.82;;;;;;;33.96;64.31;100369.94;5065007;28;70434;-37
2022/06/01 10:27:45;;;;;;;15.93;6.15;;;;;;;33.96;64.44;100372.66;5035807;28;66336;-36
2022/06/01 10:30:25;;;;;;;12.10;6.28;;;;;;;33.89;64.18;100367.41;5077858;28;70163;-37
2022/06/01 10:33:05;;;;;;;10.02;6.07;;;;;;;34.15;64.43;100403.13;5073527;28;65633;-37
2022/06/01 10:35:46;;;;;;;14.20;5.72;;;;;;;34.22;64.20;100412.75;5047766;28;69689;-37
2022/06/01 10:38:35;;;;;;;8.35;5.28;;;;;;;33.82;64.40;100361.34;5061556;28;66308;-37
2022/06/01 10:41:16;;;;;;;13.15;5.63;;;;;;;34.06;64.38;100391.06;5070194;28;69930;-37
2022/06/01 10:44:05;;;;;;;7.88;6.15;;;;;;;33.58;64.51;100309.09;5074608;28;66251;-37
2022/06/01 10:46:35;;;;;;;5.65;5.13;;;;;;;34.22;64.74;100396.44;5073512;28;69956;-37
2022/06/01 10:49:26;;;;;;;7.87;5.83;;;;;;;33.84;66.12;100399.19;5080259;28;66177;-36
2022/06/01 10:52:22;;;;;;;13.85;5.80;;;;;;;33.64;67.08;100394.28;5066679;28;69338;-37
2022/06/01 10:54:57;;;;;;;8.32;5.22;;;;;;;33.67;67.63;100400.06;5058981;28;67048;-36
2022/06/01 10:57:29;;;;;;;12.45;6.32;;;;;;;33.54;68.26;100403.13;5058434;28;69730;-36
2022/06/01 10:59:59;;;;;;;11.17;5.93;;;;;;;33.61;67.77;100414.66;5068873;28;66213;-37
2022/06/01 11:02:48;;;;;;;8.30;5.30;;;;;;;33.71;67.43;100408.53;5051614;28;69801;-38
2022/06/01 11:05:25;;;;;;;11.18;5.28;;;;;;;33.42;67.10;100348.81;5062343;28;66256;-38
2022/06/01 11:08:24;;;;;;;10.70;5.88;;;;;;;33.78;67.10;100409.19;5071821;28;69250;-37
2022/06/01 11:11:06;;;;;;;8.95;5.78;;;;;;;33.88;66.88;100422.06;5067604;28;66677;-37
2022/06/01 11:14:07;;;;;;;18.35;6.25;;;;;;;33.84;67.12;100420.94;5061847;28;70370;-37
2022/06/01 11:16:58;;;;;;;9.65;5.50;;;;;;;33.92;66.78;100423.22;5064952;28;66198;-36
2022/06/01 11:19:39;;;;;;;13.57;5.65;;;;;;;33.95;66.57;100422.72;5075372;28;69185;-37
2022/06/01 11:22:10;;;;;;;9.20;5.68;;;;;;;33.94;66.60;100416.47;5068790;28;66069;-37
2022/06/01 11:24:56;;;;;;;10.07;5.78;;;;;;;33.29;66.37;100317.38;5069042;28;70231;-36
2022/06/01 11:27:31;;;;;;;7.43;6.05;;;;;;;34.00;66.09;100425.53;5069677;28;66387;-36
2022/06/01 11:30:21;;;;;;;6.65;5.85;;;;;;;33.93;66.40;100430.31;5066058;28;69805;-37
2022/06/01 11:33:09;;;;;;;15.20;5.88;;;;;;;33.90;65.80;100425.38;5065797;28;67588;-38
2022/06/01 11:35:49;;;;;;;9.20;5.82;;;;;;;33.96;66.11;100440.69;5061186;28;70000;-37
2022/06/01 11:38:55;;;;;;;9.98;5.60;;;;;;;33.88;66.39;100449.28;5066245;28;66678;-37
2022/06/01 11:41:32;;;;;;;14.30;6.93;;;;;;;33.66;67.99;100457.44;5057330;28;69974;-37
2022/06/01 11:44:16;;;;;;;11.18;6.70;;;;;;;33.50;68.90;100456.34;5070317;28;65706;-38
2022/06/01 11:46:59;;;;;;;13.15;7.10;;;;;;;33.36;69.54;100459.38;5066162;28;69489;-37
2022/06/01 11:49:42;;;;;;;11.95;7.38;;;;;;;32.88;70.39;100392.81;5070121;27;66299;-37
2022/06/01 11:52:16;;;;;;;11.52;6.72;;;;;;;33.27;70.45;100466.31;5073287;28;70053;-38
2022/06/01 11:55:15;;;;;;;10.25;7.70;;;;;;;33.19;70.62;100474.88;5069613;28;66683;-37
2022/06/01 11:58:02;;;;;;;16.80;7.22;;;;;;;32.82;70.53;100420.97;5063696;28;70285;-37
2022/06/01 12:00:36;;;;;;;9.18;6.78;;;;;;;32.73;70.14;100411.53;5067594;28;66534;-36
2022/06/01 12:03:22;;;;;;;8.45;6.88;;;;;;;32.98;70.29;100472.81;5036077;28;69680;-37
2022/06/01 12:06:02;;;;;;;7.55;6.63;;;;;;;32.94;70.16;100457.03;5068717;28;65278;-37
2022/06/01 12:08:38;;;;;;;11.88;7.28;;;;;;;32.56;69.83;100405.25;5073196;28;70387;-37
2022/06/01 12:11:33;;;;;;;14.43;7.28;;;;;;;32.46;70.20;100398.56;5064966;28;66121;-37
2022/06/01 12:14:21;;;;;;;10.73;7.10;;;;;;;32.75;71.52;100461.00;5044173;28;70315;-38
2022/06/01 12:17:20;;;;;;;18.60;8.60;;;;;;;32.72;71.08;100458.78;5071820;28;66367;-37
2022/06/01 12:20:19;;;;;;;19.60;7.13;;;;;;;32.50;69.12;100458.63;5076312;28;70158;-39